Time;durP1;ratioP1;P1;durP2;ratioP2;P2;SDS_P1;SDS_P2;PMS_P1;PMS_P2;Temp;Humidity;BMP_temperature;BMP_pressure;BME280_temperature;BME280_humidity;BME280_pressure;Samples;Min_cycle;Max_cycle;Signal;HPM_P1;HPM_P2
2022/09/26 00:03:47;;;;;;;31.30;19.70;;;;;;;10.23;100.00;97948.12;219532;1281;22558;-78
2022/09/26 00:09:20;;;;;;;34.20;22.40;;;;;;;10.19;100.00;97940.44;219391;1281;22648;-77
2022/09/26 00:15:35;;;;;;;;;;;;;;;;;;;;;
2022/09/26 00:21:54;;;;;;;26.10;18.50;;;;;;;10.16;100.00;97920.56;219912;1277;22618;-78
2022/09/26 00:27:09;;;;;;;26.10;17.50;;;;;;;10.11;100.00;97901.41;219878;1278;23341;-77
2022/09/26 00:33:34;;;;;;;28.90;19.80;;;;;;;10.09;100.00;97905.06;220190;1277;23214;-78
2022/09/26 00:39:47;;;;;;;33.10;20.50;;;;;;;10.09;100.00;97902.39;220108;1277;22568;-78
2022/09/26 00:45:38;;;;;;;33.50;22.00;;;;;;;10.09;100.00;97903.61;220170;1278;22560;-80
2022/09/26 00:52:00;;;;;;;30.10;20.10;;;;;;;10.09;100.00;97901.69;219972;1276;24370;-78
2022/09/26 00:58:53;;;;;;;28.00;17.10;;;;;;;10.11;100.00;97889.66;220131;1277;23987;-77
2022/09/26 01:04:15;;;;;;;23.50;15.10;;;;;;;10.14;100.00;97887.11;219501;1277;22540;-77
2022/09/26 01:10:14;;;;;;;25.70;17.10;;;;;;;10.15;100.00;97892.81;220228;1277;22541;-77
2022/09/26 01:16:02;;;;;;;31.70;18.30;;;;;;;10.13;100.00;97885.44;220277;1278;22576;-77
2022/09/26 01:29:02;;;;;;;;;;;;;;;;;;;;;
2022/09/26 01:35:54;;;;;;;29.00;18.80;;;;;;;10.22;100.00;97865.17;219684;1275;23026;-78
2022/09/26 01:41:48;;;;;;;26.00;17.60;;;;;;;10.28;100.00;97861.64;219960;1277;23434;-77
2022/09/26 01:47:45;;;;;;;27.80;17.40;;;;;;;10.34;100.00;97864.34;220075;1276;22589;-77
2022/09/26 01:53:42;;;;;;;28.70;18.60;;;;;;;10.39;100.00;97850.88;216054;1276;5380711;-77
2022/09/26 02:00:01;;;;;;;32.80;18.90;;;;;;;10.46;100.00;97844.45;219432;1281;24478;-78
2022/09/26 02:05:46;;;;;;;27.30;18.10;;;;;;;10.51;100.00;97841.79;219346;1281;22544;-78
2022/09/26 02:11:11;;;;;;;27.70;19.10;;;;;;;10.56;100.00;97838.80;219256;1281;23466;-78
2022/09/26 02:17:37;;;;;;;24.30;18.70;;;;;;;10.59;100.00;97834.91;219496;1281;24441;-77
2022/09/26 02:22:57;;;;;;;28.80;18.00;;;;;;;10.63;100.00;97827.73;218147;1281;22560;-77
2022/09/26 02:28:45;;;;;;;30.20;20.60;;;;;;;10.65;100.00;97819.55;219666;1276;23281;-77
2022/09/26 02:34:06;;;;;;;32.40;22.40;;;;;;;10.66;100.00;97814.73;219731;1276;24435;-76
2022/09/26 02:39:38;;;;;;;34.80;24.10;;;;;;;10.67;100.00;97811.55;219943;1276;22538;-77
2022/09/26 02:52:05;;;;;;;;;;;;;;;;;;;;;
2022/09/26 02:58:04;;;;;;;33.70;20.60;;;;;;;10.58;100.00;97800.34;221806;1277;22535;-77
2022/09/26 03:04:08;;;;;;;20.30;14.90;;;;;;;10.56;100.00;97790.77;225730;1279;22647;-77
2022/09/26 03:10:15;;;;;;;25.20;17.40;;;;;;;10.55;100.00;97787.29;224562;1282;22663;-77
2022/09/26 03:15:56;;;;;;;;;;;;;;;;;;;;;
2022/09/26 03:21:43;;;;;;;28.50;18.10;;;;;;;10.58;100.00;97782.98;224506;1283;24341;-77
2022/09/26 03:27:38;;;;;;;30.20;19.40;;;;;;;10.59;100.00;97779.52;224361;1284;22591;-77
2022/09/26 03:33:58;;;;;;;;;;;;;;;;;;;;;
2022/09/26 03:40:22;;;;;;;25.50;18.20;;;;;;;10.68;100.00;97769.10;225592;1281;24412;-77
2022/09/26 03:46:51;;;;;;;25.40;17.40;;;;;;;10.72;100.00;97760.25;225375;1281;23084;-77
2022/09/26 03:52:51;;;;;;;21.70;17.10;;;;;;;10.75;100.00;97760.73;225317;1280;22603;-78
2022/09/26 03:58:45;;;;;;;26.40;18.30;;;;;;;10.80;100.00;97756.04;225506;1280;25289;-77
2022/09/26 04:05:06;;;;;;;24.20;17.30;;;;;;;10.86;100.00;97759.42;223912;1284;22656;-77
2022/09/26 04:10:55;;;;;;;27.10;17.20;;;;;;;10.90;100.00;97748.29;222966;1290;22579;-77
2022/09/26 04:16:20;;;;;;;23.60;16.30;;;;;;;10.94;100.00;97744.89;223749;1284;22603;-77
2022/09/26 04:22:03;;;;;;;23.60;16.00;;;;;;;10.98;100.00;97742.19;223760;1284;22532;-78
2022/09/26 04:28:24;;;;;;;23.70;16.40;;;;;;;11.02;100.00;97736.02;224285;1283;22561;-78
2022/09/26 04:34:46;;;;;;;24.00;16.90;;;;;;;11.05;100.00;97736.36;225162;1278;23028;-77
2022/09/26 04:40:00;;;;;;;23.80;16.70;;;;;;;11.06;100.00;97729.69;225181;1280;23642;-77
2022/09/26 04:45:41;;;;;;;22.50;16.20;;;;;;;11.06;100.00;97722.88;225039;1281;23033;-77
2022/09/26 04:52:19;;;;;;;23.50;16.10;;;;;;;11.05;100.00;97729.55;224640;1282;22879;-76
2022/09/26 04:58:08;;;;;;;;;;;;;;;;;;;;;
2022/09/26 05:03:43;;;;;;;;;;;;;;;11.12;100.00;97733.08;224491;1280;22570;-77
2022/09/26 05:09:43;;;;;;;23.60;16.40;;;;;;;11.18;100.00;97733.08;224322;1283;22596;-77
2022/09/26 05:16:02;;;;;;;24.50;16.80;;;;;;;11.24;100.00;97732.05;223672;1285;22727;-78
2022/09/26 05:22:24;;;;;;;;;;;;;;;;;;;;;
2022/09/26 05:28:35;;;;;;;;;;;;;;;;;;;;;
2022/09/26 05:41:35;;;;;;;21.90;15.70;;;;;;;11.65;100.00;97710.15;223907;1282;22673;-76
2022/09/26 05:54:26;;;;;;;14.30;9.90;;;;;;;11.87;100.00;97709.58;224948;1284;22498;-76
2022/09/26 06:00:48;;;;;;;16.60;10.50;;;;;;;11.96;100.00;97710.27;225712;1276;22586;-76
2022/09/26 06:07:50;;;;;;;23.60;15.50;;;;;;;12.04;100.00;97712.80;224411;1276;22572;-77
2022/09/26 06:13:36;;;;;;;15.20;11.80;;;;;;;12.11;100.00;97708.39;224332;1276;22538;-76
2022/09/26 06:19:07;;;;;;;;;;;;;;;;;;;;;
2022/09/26 06:25:19;;;;;;;15.90;12.80;;;;;;;12.29;100.00;97704.48;224702;1276;22549;-77
2022/09/26 06:31:34;;;;;;;17.40;12.40;;;;;;;12.43;100.00;97705.17;220834;1277;22634;-76
2022/09/26 06:37:19;;;;;;;16.30;10.60;;;;;;;12.50;100.00;97711.48;220089;1277;22686;-75
2022/09/26 06:42:45;;;;;;;14.40;10.70;;;;;;;12.54;100.00;97714.02;219859;1277;22724;-75
2022/09/26 06:48:54;;;;;;;13.30;10.40;;;;;;;12.57;100.00;97722.02;220703;1276;22568;-77
2022/09/26 06:55:23;;;;;;;16.90;12.50;;;;;;;12.55;100.00;97721.94;220006;1279;26368;-77
2022/09/26 07:00:31;;;;;;;16.20;12.80;;;;;;;12.59;100.00;97719.70;220265;1279;22586;-76
2022/09/26 07:06:24;;;;;;;18.10;13.50;;;;;;;12.70;100.00;97722.03;220292;1278;26501;-76
2022/09/26 07:12:00;;;;;;;;;;;;;;;;;;;;;
2022/09/26 07:18:01;;;;;;;20.60;13.20;;;;;;;12.89;100.00;97726.84;219747;1281;22985;-76
2022/09/26 07:23:25;;;;;;;20.80;14.90;;;;;;;12.99;100.00;97727.52;219891;1281;22567;-77
2022/09/26 07:29:04;;;;;;;;;;;;;;;;;;;;;
2022/09/26 07:34:44;;;;;;;25.90;16.40;;;;;;;13.30;100.00;97726.67;219998;1276;22590;-75
2022/09/26 07:40:20;;;;;;;25.20;16.50;;;;;;;13.54;100.00;97727.12;219812;1281;22625;-76
2022/09/26 07:51:32;;;;;;;21.30;16.00;;;;;;;13.87;99.89;97716.70;219340;1282;25977;-76
2022/09/26 07:56:58;;;;;;;17.90;12.90;;;;;;;14.01;99.95;97717.73;219680;1281;25488;-76
2022/09/26 08:02:39;;;;;;;16.80;13.70;;;;;;;14.07;99.16;97720.60;219556;1276;22794;-76
2022/09/26 08:07:41;;;;;;;24.50;14.90;;;;;;;14.09;98.50;97725.80;220487;1276;26372;-77
2022/09/26 08:13:06;;;;;;;16.60;13.50;;;;;;;14.17;98.40;97727.38;220357;1277;22596;-76
2022/09/26 08:18:50;;;;;;;23.10;16.40;;;;;;;14.32;98.24;97727.84;220273;1277;22576;-77
2022/09/26 08:24:18;;;;;;;;;;;;;;;;;;;;;
2022/09/26 08:30:03;;;;;;;36.70;14.80;;;;;;;14.59;98.12;97725.79;220215;1276;23981;-76
2022/09/26 08:35:19;;;;;;;19.60;12.80;;;;;;;14.87;97.84;97725.99;221201;1276;24859;-78
2022/09/26 08:41:03;;;;;;;21.90;15.70;;;;;;;15.02;96.97;97720.86;219998;1276;22562;-77
2022/09/26 08:47:15;;;;;;;;;;;;;;;;;;;;;
2022/09/26 08:53:33;;;;;;;21.10;14.90;;;;;;;15.53;96.52;97716.42;220126;1278;25034;-77
2022/09/26 08:58:41;;;;;;;22.00;14.90;;;;;;;15.90;96.87;97716.04;220379;1278;22662;-77
2022/09/26 09:05:02;;;;;;;;;;;;;;;;;;;;;
2022/09/26 09:10:56;;;;;;;17.70;13.70;;;;;;;16.67;95.89;97722.39;219593;1276;23274;-77
2022/09/26 09:17:24;;;;;;;16.20;10.60;;;;;;;17.10;94.83;97714.64;220179;1276;25417;-76
2022/09/26 09:37:07;;;;;;;14.80;10.80;;;;;;;17.10;91.10;97711.52;220254;1278;22576;-77
2022/09/26 09:44:07;;;;;;;;;;;;;;;;;;;;;
2022/09/26 09:50:37;;;;;;;13.90;9.90;;;;;;;17.74;90.03;97701.29;219657;1281;22573;-77
2022/09/26 09:57:29;;;;;;;12.40;9.60;;;;;;;17.85;89.18;97698.62;219755;1281;24371;-77
2022/09/26 10:03:56;;;;;;;;;;;;;;;;;;;;;
2022/09/26 10:09:45;;;;;;;10.70;7.70;;;;;;;17.37;87.20;97709.80;216770;1293;23114;-77
2022/09/26 10:16:00;;;;;;;9.10;8.00;;;;;;;17.44;87.87;97705.36;218901;1281;23604;-77
2022/09/26 10:22:35;;;;;;;10.20;8.10;;;;;;;17.63;88.07;97707.53;220458;1281;22683;-79
2022/09/26 10:29:08;;;;;;;9.60;7.40;;;;;;;17.88;87.61;97698.11;221238;1281;24565;-79
2022/09/26 10:34:28;;;;;;;8.60;6.70;;;;;;;17.92;84.96;97692.23;220366;1276;25371;-77
2022/09/26 10:45:53;;;;;;;10.50;7.20;;;;;;;18.06;85.00;97679.52;218927;1284;22560;-77
2022/09/26 10:51:49;;;;;;;8.70;5.90;;;;;;;18.40;85.43;97673.26;218522;1284;24265;-78
2022/09/26 10:58:03;;;;;;;9.20;7.30;;;;;;;18.50;82.93;97670.14;218903;1284;22541;-78
2022/09/26 11:04:04;;;;;;;13.00;6.30;;;;;;;18.42;82.02;97668.27;218689;1284;24569;-78
2022/09/26 11:09:45;;;;;;;10.40;6.20;;;;;;;18.61;82.44;97664.69;218905;1281;24138;-78
2022/09/26 11:15:48;;;;;;;8.70;7.00;;;;;;;18.83;82.42;97662.41;219640;1281;24349;-78
2022/09/26 11:21:34;;;;;;;;;;;;;;;;;;;;;
2022/09/26 11:27:42;;;;;;;5.30;4.80;;;;;;;19.38;82.38;97651.89;219512;1281;24168;-78
2022/09/26 11:33:09;;;;;;;7.00;5.50;;;;;;;19.24;79.42;97641.38;217740;1288;25484;-77
2022/09/26 11:40:01;;;;;;;6.10;5.30;;;;;;;18.67;78.33;97644.69;219595;1281;23453;-78
2022/09/26 11:46:04;;;;;;;8.90;6.20;;;;;;;18.15;78.20;97639.39;219608;1281;23848;-76
2022/09/26 11:52:34;;;;;;;;;;;;;;;;;;;;;
2022/09/26 11:58:44;;;;;;;7.00;6.00;;;;;;;17.82;79.93;97628.60;219483;1281;25415;-77
2022/09/26 12:04:54;;;;;;;6.80;6.00;;;;;;;17.87;80.53;97620.63;218691;1281;22543;-77
2022/09/26 12:10:45;;;;;;;7.60;6.40;;;;;;;18.16;80.91;97615.02;219310;1281;25269;-78
2022/09/26 12:17:07;;;;;;;;;;;;;;;;;;;;;
2022/09/26 12:22:51;;;;;;;7.70;6.20;;;;;;;18.18;78.56;97612.48;221558;1284;25340;-80
2022/09/26 12:28:40;;;;;;;;;;;;;;;18.06;78.49;97609.69;221432;1287;22769;-79
2022/09/26 12:34:13;;;;;;;7.80;6.30;;;;;;;18.11;78.16;97612.63;221164;1287;22562;-79
2022/09/26 12:40:02;;;;;;;11.20;7.00;;;;;;;18.34;79.23;97611.67;221606;1287;25479;-79
2022/09/26 12:45:40;;;;;;;8.40;7.10;;;;;;;18.78;79.30;97603.67;221169;1287;22638;-79
2022/09/26 12:52:07;;;;;;;;;;;;;;;;;;;;;
2022/09/26 12:58:29;;;;;;;8.50;7.10;;;;;;;19.17;77.70;97607.17;220445;1287;22683;-81
2022/09/26 13:10:26;;;;;;;7.80;6.30;;;;;;;19.50;76.24;97603.20;220376;1287;22495;-80
2022/09/26 13:16:39;;;;;;;7.50;6.70;;;;;;;19.61;76.41;97596.98;220394;1287;22542;-82
2022/09/26 13:23:25;;;;;;;;;;;;;;;;;;;;;
2022/09/26 13:30:07;;;;;;;7.60;5.50;;;;;;;19.04;74.64;97598.77;219119;1293;25433;-79
2022/09/26 13:36:27;;;;;;;8.80;6.50;;;;;;;18.64;74.87;97596.52;218989;1294;22733;-79
2022/09/26 13:42:44;;;;;;;;;;;;;;;;;;;;;
2022/09/26 13:55:10;;;;;;;6.70;5.60;;;;;;;17.82;76.32;97593.30;216003;1293;23169;-77
2022/09/26 14:13:40;;;;;;;3.90;1.50;;;;;;;16.63;75.33;97610.62;222473;1287;22985;-79
2022/09/26 14:19:34;;;;;;;1.30;1.20;;;;;;;16.27;75.22;97614.90;223078;1284;22643;-80
2022/09/26 14:24:46;;;;;;;1.20;0.90;;;;;;;15.85;75.24;97615.86;223007;1284;22580;-78
2022/09/26 14:30:32;;;;;;;1.20;1.10;;;;;;;15.51;75.97;97603.55;222790;1287;22583;-79
2022/09/26 14:36:14;;;;;;;1.90;1.40;;;;;;;15.37;76.70;97604.23;223103;1284;22524;-78
2022/09/26 14:41:32;;;;;;;1.90;1.50;;;;;;;15.20;77.23;97602.89;223669;1284;22756;-80
2022/09/26 14:46:56;;;;;;;2.80;1.70;;;;;;;15.04;77.67;97601.10;223755;1284;22547;-78
2022/09/26 14:52:44;;;;;;;2.10;1.80;;;;;;;14.83;78.26;97597.09;222827;1281;22539;-77
2022/09/26 14:58:26;;;;;;;1.80;1.60;;;;;;;14.67;78.84;97590.42;224132;1281;22595;-79
2022/09/26 15:03:42;;;;;;;1.50;1.40;;;;;;;14.49;79.19;97592.84;223646;1281;22593;-80
2022/09/26 15:08:58;;;;;;;2.90;1.70;;;;;;;14.40;79.70;97585.52;223505;1280;23740;-79
2022/09/26 15:15:08;;;;;;;3.30;1.40;;;;;;;14.32;79.88;97579.52;223192;1284;24237;-79
2022/09/26 15:21:05;;;;;;;3.70;2.40;;;;;;;14.25;80.42;97573.23;223028;1284;22574;-79
2022/09/26 15:26:51;;;;;;;5.40;2.30;;;;;;;14.24;80.63;97574.05;223169;1284;22597;-79
2022/09/26 15:32:42;;;;;;;4.00;2.40;;;;;;;14.24;80.92;97581.43;223042;1284;22720;-78
2022/09/26 15:38:24;;;;;;;4.30;3.10;;;;;;;14.31;81.39;97581.27;222550;1287;22570;-78
2022/09/26 15:44:21;;;;;;;4.60;2.80;;;;;;;14.43;81.53;97582.21;222752;1284;23270;-79
2022/09/26 15:57:17;;;;;;;6.00;3.30;;;;;;;14.43;81.55;97578.14;221299;1290;22560;-76
2022/09/26 16:02:42;;;;;;;7.10;4.50;;;;;;;14.37;81.66;97580.42;221986;1290;23810;-79
2022/09/26 16:09:00;;;;;;;5.40;3.30;;;;;;;14.33;81.89;97587.02;221908;1290;22545;-79
2022/09/26 16:15:15;;;;;;;7.50;3.60;;;;;;;14.18;82.15;97576.83;222406;1287;22635;-78
2022/09/26 16:21:06;;;;;;;6.80;3.60;;;;;;;14.05;82.32;97567.07;222207;1290;22736;-78
2022/09/26 16:26:39;;;;;;;3.70;2.70;;;;;;;13.90;82.72;97562.39;222924;1285;22519;-78
2022/09/26 16:32:14;;;;;;;4.90;2.40;;;;;;;13.73;82.97;97562.67;223050;1287;22508;-78
2022/09/26 16:38:23;;;;;;;3.80;2.40;;;;;;;13.48;83.07;97559.46;223343;1281;22567;-77
2022/09/26 16:44:25;;;;;;;9.80;4.50;;;;;;;13.24;83.60;97575.48;224075;1281;22547;-78
2022/09/26 16:50:56;;;;;;;10.20;5.80;;;;;;;12.98;84.03;97563.90;224308;1281;23107;-77
2022/09/26 16:56:34;;;;;;;11.50;5.70;;;;;;;12.75;84.43;97553.61;223563;1282;22504;-77
2022/09/26 17:02:13;;;;;;;8.70;5.60;;;;;;;12.57;84.95;97554.91;222820;1283;22642;-80
2022/09/26 17:07:33;;;;;;;10.80;6.20;;;;;;;12.41;85.32;97551.67;222666;1284;22595;-80
2022/09/26 17:13:31;;;;;;;8.50;5.30;;;;;;;12.26;85.54;97558.05;222714;1285;22598;-77
2022/09/26 17:20:05;;;;;;;;;;;;;;;;;;;;;
2022/09/26 17:26:37;;;;;;;10.30;6.80;;;;;;;12.03;86.79;97556.37;224039;1284;22648;-77
2022/09/26 17:32:53;;;;;;;15.10;8.50;;;;;;;11.94;86.88;97552.98;223270;1287;22586;-78
2022/09/26 17:39:01;;;;;;;11.80;8.40;;;;;;;11.81;87.06;97552.64;223706;1285;22576;-77
2022/09/26 17:44:18;;;;;;;16.40;9.90;;;;;;;11.69;87.28;97548.72;222832;1285;22578;-78
2022/09/26 17:51:00;;;;;;;18.00;11.30;;;;;;;11.53;87.51;97551.75;223264;1284;22569;-79
2022/09/26 17:57:34;;;;;;;23.60;13.40;;;;;;;11.35;87.71;97540.10;222609;1289;22586;-80
2022/09/26 18:11:04;;;;;;;21.60;13.30;;;;;;;11.07;88.65;97551.16;224201;1282;25278;-77
2022/09/26 18:17:26;;;;;;;;;;;;;;;;;;;;;
2022/09/26 18:23:21;;;;;;;18.70;11.80;;;;;;;10.84;89.10;97547.86;224208;1281;22572;-79
2022/09/26 18:28:24;;;;;;;18.70;10.50;;;;;;;10.74;89.59;97546.16;224055;1279;22708;-78
2022/09/26 18:33:55;;;;;;;;;;;;;;;;;;;;;
2022/09/26 18:39:44;;;;;;;16.90;10.50;;;;;;;10.57;89.91;97549.19;224219;1281;22695;-77
2022/09/26 18:45:15;;;;;;;19.50;10.20;;;;;;;10.46;90.23;97551.58;223969;1282;22628;-79
2022/09/26 18:51:02;;;;;;;18.00;9.80;;;;;;;10.38;90.42;97555.42;222925;1286;22617;-79
2022/09/26 19:03:02;;;;;;;17.20;10.00;;;;;;;10.24;91.02;97550.58;223382;1286;25350;-78
2022/09/26 19:09:26;;;;;;;;;;;;;;;;;;;;;
2022/09/26 19:15:34;;;;;;;27.90;16.70;;;;;;;10.07;91.84;97563.67;222045;1290;22637;-78
2022/09/26 19:21:27;;;;;;;56.50;30.50;;;;;;;9.92;91.94;97562.79;222768;1284;25950;-78
2022/09/26 19:27:36;;;;;;;57.00;30.70;;;;;;;9.84;92.14;97560.83;223256;1284;22552;-78
2022/09/26 19:33:23;;;;;;;72.00;36.50;;;;;;;9.78;92.39;97562.13;223278;1284;22560;-77
2022/09/26 19:39:41;;;;;;;71.80;38.40;;;;;;;9.73;92.92;97563.55;223345;1284;22618;-78
2022/09/26 19:46:19;;;;;;;79.60;40.40;;;;;;;9.67;92.88;97561.52;223041;1287;22736;-78
2022/09/26 19:53:19;;;;;;;69.10;35.50;;;;;;;9.62;93.04;97560.66;223120;1287;22814;-80
2022/09/26 19:59:31;;;;;;;58.00;31.40;;;;;;;9.57;93.47;97561.19;223020;1287;24310;-79
2022/09/26 20:05:51;;;;;;;45.90;26.60;;;;;;;9.53;93.74;97552.31;223878;1283;23457;-77
2022/09/26 20:12:12;;;;;;;41.90;23.00;;;;;;;9.48;93.84;97556.03;223604;1284;22555;-80
2022/09/26 20:18:11;;;;;;;39.60;21.80;;;;;;;9.44;93.91;97555.45;223463;1284;22557;-76
2022/09/26 20:23:59;;;;;;;42.00;23.10;;;;;;;9.38;94.02;97559.94;223466;1284;22550;-78
2022/09/26 20:37:00;;;;;;;;;;;;;;;;;;;;;
2022/09/26 20:43:25;;;;;;;42.10;21.50;;;;;;;9.26;94.71;97551.77;223480;1284;22593;-77
2022/09/26 20:50:26;;;;;;;;;;;;;;;;;;;;;
2022/09/26 20:56:55;;;;;;;42.20;21.10;;;;;;;9.14;94.98;97538.20;223347;1284;22542;-78
2022/09/26 21:03:24;;;;;;;40.20;22.20;;;;;;;9.07;94.88;97535.59;224737;1281;22557;-77
2022/09/26 21:09:22;;;;;;;39.70;21.70;;;;;;;9.02;94.85;97531.35;223895;1282;22508;-78
2022/09/26 21:14:46;;;;;;;37.40;21.20;;;;;;;8.96;95.30;97513.52;223722;1282;22617;-75
2022/09/26 21:21:04;;;;;;;40.20;22.30;;;;;;;8.94;95.42;97509.52;223504;1285;23274;-77
2022/09/26 21:28:03;;;;;;;;;;;;;;;;;;;;;
2022/09/26 21:34:08;;;;;;;45.40;26.00;;;;;;;8.90;95.84;97499.05;223119;1287;22702;-76
2022/09/26 21:40:30;;;;;;;53.80;31.50;;;;;;;8.85;95.92;97491.27;222631;1288;22603;-78
2022/09/26 21:46:33;;;;;;;54.50;30.40;;;;;;;8.83;95.80;97495.65;222850;1287;22858;-78
2022/09/26 21:52:29;;;;;;;52.50;28.10;;;;;;;8.79;96.15;97487.27;222612;1285;22690;-79
2022/09/26 21:58:33;;;;;;;;;;;;;;;;;;;;;
2022/09/26 22:04:17;;;;;;;37.50;23.20;;;;;;;8.72;96.27;97476.06;222566;1287;22591;-78
2022/09/26 22:10:08;;;;;;;42.50;22.80;;;;;;;8.69;96.37;97472.89;222729;1287;22609;-76
2022/09/26 22:16:06;;;;;;;;;;;;;;;;;;;;;
2022/09/26 22:22:17;;;;;;;34.40;20.00;;;;;;;8.66;96.82;97461.90;222995;1284;25327;-77
2022/09/26 22:28:10;;;;;;;33.90;20.00;;;;;;;8.66;97.28;97455.61;223431;1284;22935;-76
2022/09/26 22:33:58;;;;;;;32.80;19.40;;;;;;;8.68;97.39;97445.45;224143;1281;22570;-77
2022/09/26 22:40:47;;;;;;;26.50;16.30;;;;;;;8.69;97.62;97441.63;224588;1281;22558;-77
2022/09/26 22:47:08;;;;;;;25.60;16.50;;;;;;;8.69;97.65;97446.18;224830;1281;24267;-79
2022/09/26 22:53:33;;;;;;;;;;;;;;;;;;;;;
2022/09/26 22:59:38;;;;;;;32.40;17.20;;;;;;;8.61;98.06;97429.38;223161;1286;22663;-78
2022/09/26 23:05:38;;;;;;;29.70;17.10;;;;;;;8.60;98.08;97422.23;223095;1287;22789;-78
2022/09/26 23:13:04;;;;;;;34.90;19.00;;;;;;;8.57;98.17;97418.31;223244;1286;22640;-78
2022/09/26 23:19:20;;;;;;;34.40;18.20;;;;;;;8.53;98.15;97411.70;223237;1287;22603;-79
2022/09/26 23:26:26;;;;;;;33.70;19.30;;;;;;;8.48;98.24;97406.44;223184;1286;22567;-76
2022/09/26 23:32:34;;;;;;;31.20;18.50;;;;;;;8.42;98.13;97403.44;222587;1286;22591;-79
2022/09/26 23:45:05;;;;;;;36.10;19.70;;;;;;;8.30;98.26;97400.96;224669;1281;22562;-79
2022/09/26 23:51:23;;;;;;;36.20;19.90;;;;;;;8.25;98.27;97398.14;224567;1281;22809;-80
2022/09/26 23:57:26;;;;;;;;;;;;;;;;;;;;;
